Time;durP1;ratioP1;P1;durP2;ratioP2;P2;SDS_P1;SDS_P2;PMS_P1;PMS_P2;Temp;Humidity;BMP_temperature;BMP_pressure;BME280_temperature;BME280_humidity;BME280_pressure;Samples;Min_cycle;Max_cycle;Signal;HPM_P1;HPM_P2
2023/08/23 00:01:07;;;;;;;4.53;4.13;;;;;;;27.29;54.42;98997.75;6942003;28;20238;-84
2023/08/23 00:04:34;;;;;;;5.50;4.47;;;;;;;27.15;54.46;98996.06;6942011;28;20258;-84
2023/08/23 00:07:55;;;;;;;7.23;4.30;;;;;;;27.15;54.97;99009.91;6941684;28;20556;-84
2023/08/23 00:11:17;;;;;;;6.47;4.37;;;;;;;26.91;55.51;98996.28;6941852;28;20203;-84
2023/08/23 00:14:39;;;;;;;6.07;5.00;;;;;;;26.88;55.23;98985.81;6941775;28;20235;-84
2023/08/23 00:18:02;;;;;;;5.07;4.20;;;;;;;26.87;55.44;98992.47;6940307;28;20293;-87
2023/08/23 00:21:23;;;;;;;4.70;4.20;;;;;;;26.90;55.51;98994.63;6946111;28;20301;-87
2023/08/23 00:24:45;;;;;;;6.97;4.60;;;;;;;26.74;55.77;98992.44;6946001;28;20631;-86
2023/08/23 00:28:22;;;;;;;7.10;4.57;;;;;;;26.89;54.93;98987.44;6943364;28;20355;-87
2023/08/23 00:31:44;;;;;;;5.47;4.77;;;;;;;26.76;55.37;98988.25;6945770;28;20253;-87
2023/08/23 00:35:07;;;;;;;5.00;4.53;;;;;;;26.68;55.49;98980.66;6947738;28;20325;-84
2023/08/23 00:38:29;;;;;;;6.43;5.30;;;;;;;26.28;56.82;98995.19;6946589;28;20294;-86
2023/08/23 00:41:50;;;;;;;7.37;4.40;;;;;;;26.38;56.05;98989.47;6945564;28;20697;-86
2023/08/23 00:45:12;;;;;;;6.87;4.63;;;;;;;26.55;55.72;98992.50;6945685;28;20218;-86
2023/08/23 00:48:33;;;;;;;6.57;4.50;;;;;;;26.52;55.52;98998.63;6945262;28;20293;-86
2023/08/23 00:51:56;;;;;;;9.80;4.90;;;;;;;26.09;56.98;98986.09;6945411;28;20225;-86
2023/08/23 00:55:18;;;;;;;5.97;4.10;;;;;;;25.66;55.83;98860.22;6945637;28;20362;-86
2023/08/23 00:58:40;;;;;;;6.90;4.27;;;;;;;26.58;55.41;98991.91;6945685;28;20343;-86
2023/08/23 01:02:01;;;;;;;4.43;4.03;;;;;;;26.38;55.64;98980.34;6946496;28;20204;-86
2023/08/23 01:05:27;;;;;;;6.50;4.50;;;;;;;25.91;55.37;98905.97;6945813;28;20259;-86
2023/08/23 01:09:04;;;;;;;9.60;5.13;;;;;;;26.39;55.41;98982.00;6946233;28;20281;-86
2023/08/23 01:12:31;;;;;;;5.50;4.60;;;;;;;26.16;55.78;98974.66;6946176;28;20226;-86
2023/08/23 01:15:53;;;;;;;5.83;4.43;;;;;;;26.07;56.00;98968.19;6945534;28;20298;-86
2023/08/23 01:19:30;;;;;;;6.43;4.67;;;;;;;25.25;56.77;98867.47;6946644;28;20206;-86
2023/08/23 01:22:54;;;;;;;6.40;4.50;;;;;;;26.02;56.53;98985.63;6960629;28;20225;-86
2023/08/23 01:26:17;;;;;;;5.67;4.70;;;;;;;26.01;56.46;98980.44;6999393;28;20265;-87
2023/08/23 01:29:38;;;;;;;5.47;4.90;;;;;;;26.08;55.88;98989.16;7000137;28;20261;-86
2023/08/23 01:33:07;;;;;;;5.80;4.50;;;;;;;26.24;55.35;98988.59;6987314;28;20248;-86
2023/08/23 01:36:29;;;;;;;6.77;4.60;;;;;;;26.22;55.33;98987.25;6973188;28;20682;-86
2023/08/23 01:39:53;;;;;;;6.03;5.27;;;;;;;25.56;57.01;98968.09;6973493;28;20296;-86
2023/08/23 01:43:16;;;;;;;6.60;4.60;;;;;;;25.88;56.67;98987.50;6971648;28;20245;-86
2023/08/23 01:46:38;;;;;;;6.67;4.57;;;;;;;25.91;56.59;98986.94;6971852;28;20289;-86
2023/08/23 01:50:00;;;;;;;6.43;5.20;;;;;;;25.95;56.48;98984.41;6971702;28;20241;-85
2023/08/23 01:53:21;;;;;;;4.73;4.33;;;;;;;25.90;56.28;98970.66;6971486;28;20317;-86
2023/08/23 01:56:43;;;;;;;5.57;4.67;;;;;;;25.80;56.07;98977.13;6969515;28;20321;-87
2023/08/23 02:00:09;;;;;;;5.70;4.73;;;;;;;25.36;57.78;98992.41;6965944;28;20765;-87
2023/08/23 02:03:31;;;;;;;7.87;5.20;;;;;;;24.70;59.85;98994.22;6970847;28;20294;-87
2023/08/23 02:06:52;;;;;;;5.47;4.97;;;;;;;24.97;58.48;98950.34;6970832;28;20745;-87
2023/08/23 02:10:14;;;;;;;6.20;4.80;;;;;;;25.22;57.26;98937.06;6970910;28;20294;-86
2023/08/23 02:13:35;;;;;;;5.17;4.60;;;;;;;25.63;56.23;98978.75;6970745;28;20251;-86
2023/08/23 02:16:58;;;;;;;7.20;5.07;;;;;;;25.52;56.65;99008.47;6970530;28;20318;-87
2023/08/23 02:20:20;;;;;;;8.13;4.90;;;;;;;25.62;56.86;98989.00;6971341;28;20342;-87
2023/08/23 02:23:41;;;;;;;10.10;5.00;;;;;;;25.39;57.12;98992.63;6970839;28;20316;-87
2023/08/23 02:27:14;;;;;;;5.70;4.53;;;;;;;25.61;56.57;98992.06;6968753;28;20244;-86
2023/08/23 02:30:35;;;;;;;7.43;4.90;;;;;;;25.50;57.04;98985.03;6970389;28;20287;-87
2023/08/23 02:33:58;;;;;;;7.63;5.07;;;;;;;25.51;57.05;98994.94;6970634;28;20360;-86
2023/08/23 02:37:20;;;;;;;4.07;3.77;;;;;;;25.56;56.18;98992.97;6972882;28;22349;-87
2023/08/23 02:40:42;;;;;;;8.67;5.30;;;;;;;25.21;57.15;98989.78;6997270;28;20260;-86
2023/08/23 02:44:04;;;;;;;5.93;4.80;;;;;;;25.33;57.23;98984.69;6997461;28;20610;-87
2023/08/23 02:47:25;;;;;;;5.63;5.03;;;;;;;25.01;56.88;98921.88;6997346;28;20283;-86
2023/08/23 02:50:48;;;;;;;8.53;5.00;;;;;;;25.08;57.41;98976.72;6998114;28;20216;-86
2023/08/23 02:54:10;;;;;;;6.33;5.50;;;;;;;24.90;57.52;98996.78;6998166;28;20696;-86
2023/08/23 02:57:31;;;;;;;6.60;5.17;;;;;;;24.90;58.51;98978.28;6998058;28;20699;-86
2023/08/23 03:00:53;;;;;;;6.63;5.47;;;;;;;25.17;58.19;98984.03;6997735;28;20270;-86
2023/08/23 03:04:14;;;;;;;5.40;4.90;;;;;;;25.16;57.42;98976.06;6997981;28;20291;-86
2023/08/23 03:07:37;;;;;;;5.93;5.33;;;;;;;25.09;57.71;98956.28;6997165;28;20342;-86
2023/08/23 03:11:03;;;;;;;6.77;5.37;;;;;;;24.93;57.85;98955.66;6998301;28;20238;-86
2023/08/23 03:14:24;;;;;;;8.17;6.03;;;;;;;24.97;57.87;98977.94;6992153;28;20279;-86
2023/08/23 03:17:46;;;;;;;7.97;5.00;;;;;;;25.36;56.98;98978.59;6970239;28;20243;-86
2023/08/23 03:21:07;;;;;;;6.10;5.40;;;;;;;25.08;57.35;98960.16;6970920;28;20307;-86
2023/08/23 03:24:30;;;;;;;7.47;5.30;;;;;;;24.79;58.60;98976.75;6971106;28;20356;-86
2023/08/23 03:27:54;;;;;;;9.30;5.03;;;;;;;24.80;58.89;98969.31;6968934;28;20296;-86
2023/08/23 03:31:15;;;;;;;7.23;5.13;;;;;;;25.11;57.25;98973.34;6971065;28;20196;-86
2023/08/23 03:34:37;;;;;;;6.57;4.97;;;;;;;24.66;57.89;98916.78;6971075;28;20362;-86
2023/08/23 03:37:58;;;;;;;6.23;5.27;;;;;;;25.20;57.41;98988.97;6970412;28;20245;-86
2023/08/23 03:41:21;;;;;;;7.57;5.13;;;;;;;25.04;57.31;98989.44;6993272;28;20206;-87
2023/08/23 03:44:42;;;;;;;7.90;5.73;;;;;;;25.05;57.29;98989.16;6977476;28;20327;-86
2023/08/23 03:48:05;;;;;;;6.83;5.37;;;;;;;25.02;57.64;98994.44;6969780;28;20207;-87
2023/08/23 03:51:27;;;;;;;11.03;5.40;;;;;;;24.90;57.53;98989.31;6970594;28;20210;-86
2023/08/23 03:54:48;;;;;;;6.67;5.03;;;;;;;24.93;57.23;98979.63;6975047;28;20313;-86
2023/08/23 03:58:11;;;;;;;5.77;4.83;;;;;;;24.48;58.41;98964.38;6967259;28;20244;-87
2023/08/23 04:01:32;;;;;;;7.20;5.50;;;;;;;24.81;57.60;98969.03;6946601;28;20297;-85
2023/08/23 04:04:54;;;;;;;6.93;5.57;;;;;;;24.73;57.78;98969.66;6947792;28;20771;-86
2023/08/23 04:08:16;;;;;;;6.10;5.33;;;;;;;24.28;57.79;98919.66;6947404;28;20284;-87
2023/08/23 04:11:37;;;;;;;6.67;5.30;;;;;;;24.57;58.15;98979.22;6983474;28;20203;-86
2023/08/23 04:15:00;;;;;;;8.63;5.93;;;;;;;24.27;59.07;98996.00;7003108;28;20262;-86
2023/08/23 04:18:22;;;;;;;7.63;6.13;;;;;;;24.21;59.56;98975.13;6984580;28;20685;-86
2023/08/23 04:21:43;;;;;;;8.27;5.87;;;;;;;24.71;59.02;98985.69;6974714;28;20210;-86
2023/08/23 04:25:05;;;;;;;6.93;5.70;;;;;;;24.62;58.51;99001.22;6973994;28;20285;-87
2023/08/23 04:28:29;;;;;;;8.43;5.60;;;;;;;24.83;57.72;99008.16;6972729;28;20315;-86
2023/08/23 04:31:52;;;;;;;7.17;6.00;;;;;;;24.68;58.13;98997.31;6975508;28;20223;-86
2023/08/23 04:35:13;;;;;;;8.73;5.80;;;;;;;24.79;57.94;99004.34;6975917;28;20241;-84
2023/08/23 04:38:35;;;;;;;6.93;5.90;;;;;;;24.78;58.22;98999.94;6986491;28;20235;-85
2023/08/23 04:41:56;;;;;;;10.13;6.23;;;;;;;24.70;57.91;99000.59;6986130;28;20281;-85
2023/08/23 04:45:18;;;;;;;8.00;6.10;;;;;;;24.86;57.04;99002.06;6978921;28;20220;-85
2023/08/23 04:48:41;;;;;;;7.77;5.70;;;;;;;24.85;56.82;98985.81;6978352;28;20301;-86
2023/08/23 04:52:03;;;;;;;6.90;5.83;;;;;;;23.77;58.18;98891.72;6976446;28;20336;-86
2023/08/23 04:55:24;;;;;;;6.83;6.20;;;;;;;23.91;60.68;98988.31;6977540;28;20234;-86
2023/08/23 04:58:59;;;;;;;7.93;6.57;;;;;;;24.41;60.04;99004.41;6974064;28;20213;-86
2023/08/23 05:02:21;;;;;;;5.77;5.23;;;;;;;24.15;58.57;98912.91;6975394;28;20904;-86
2023/08/23 05:05:43;;;;;;;7.17;6.10;;;;;;;24.80;57.92;99013.44;6972140;28;20208;-86
2023/08/23 05:09:05;;;;;;;6.83;6.07;;;;;;;24.86;58.53;99015.03;6973333;28;20263;-86
2023/08/23 05:12:27;;;;;;;6.97;6.37;;;;;;;24.96;57.84;99012.97;6973096;28;20227;-85
2023/08/23 05:15:52;;;;;;;6.07;5.33;;;;;;;24.85;57.51;98989.41;6972761;28;20235;-86
2023/08/23 05:19:13;;;;;;;6.77;5.43;;;;;;;25.11;57.15;99006.47;6973425;28;20192;-86
2023/08/23 05:22:37;;;;;;;6.47;5.87;;;;;;;24.48;57.34;98908.44;6973441;28;20269;-86
2023/08/23 05:25:59;;;;;;;9.10;6.23;;;;;;;25.00;57.47;99015.97;6977033;28;20194;-86
2023/08/23 05:29:21;;;;;;;6.90;6.20;;;;;;;24.65;58.96;99008.09;6984777;28;20210;-86
2023/08/23 05:32:42;;;;;;;8.87;6.17;;;;;;;25.05;58.11;99002.13;6989329;28;20294;-87
2023/08/23 05:36:04;;;;;;;7.50;5.83;;;;;;;25.21;57.56;98998.91;6970970;28;20231;-87
2023/08/23 05:39:28;;;;;;;7.23;6.07;;;;;;;25.31;57.69;99022.84;6970085;28;20683;-86
2023/08/23 05:42:49;;;;;;;8.17;5.50;;;;;;;26.11;55.84;99011.50;6971450;28;20233;-85
2023/08/23 05:46:11;;;;;;;6.10;5.50;;;;;;;26.13;54.34;98953.16;6970560;28;20228;-86
2023/08/23 05:49:42;;;;;;;7.83;5.50;;;;;;;26.89;52.79;98998.50;6969785;28;20346;-85
2023/08/23 05:53:09;;;;;;;12.43;6.00;;;;;;;27.39;51.80;99005.00;6971321;28;20589;-83
2023/08/23 05:56:32;;;;;;;5.93;5.07;;;;;;;27.43;51.58;99017.91;6970504;28;20207;-82
2023/08/23 06:00:00;;;;;;;9.07;5.27;;;;;;;27.55;51.35;99011.88;6964763;28;20230;-84
2023/08/23 06:03:21;;;;;;;8.30;5.53;;;;;;;27.25;51.21;98946.06;6943546;28;20665;-84
2023/08/23 06:06:43;;;;;;;6.20;5.70;;;;;;;27.72;50.97;99012.06;6943085;28;20725;-83
2023/08/23 06:10:05;;;;;;;12.33;6.50;;;;;;;27.22;51.92;98993.75;6947591;28;20733;-85
2023/08/23 06:13:28;;;;;;;10.40;6.70;;;;;;;26.82;54.36;99034.06;6969796;28;20237;-85
2023/08/23 06:16:50;;;;;;;9.43;6.40;;;;;;;26.71;54.16;99029.84;6968536;28;20230;-85
2023/08/23 06:20:12;;;;;;;8.67;6.40;;;;;;;27.27;53.48;99033.25;6973047;28;20245;-83
2023/08/23 06:23:34;;;;;;;8.10;5.97;;;;;;;27.50;52.48;99021.13;6971648;28;20261;-86
2023/08/23 06:26:56;;;;;;;8.13;6.97;;;;;;;27.42;53.58;99032.91;6951281;28;20697;-86
2023/08/23 06:30:19;;;;;;;9.43;6.50;;;;;;;28.21;50.03;99029.50;6951551;28;20229;-86
2023/08/23 06:33:40;;;;;;;7.27;6.27;;;;;;;27.34;52.29;99008.72;6968473;28;20372;-86
2023/08/23 06:37:02;;;;;;;7.70;6.57;;;;;;;27.85;51.24;99019.53;6969843;28;20768;-86
2023/08/23 06:40:25;;;;;;;8.80;6.77;;;;;;;27.46;50.32;98952.78;6969900;28;20225;-86
2023/08/23 06:43:47;;;;;;;6.93;6.27;;;;;;;29.59;46.57;99021.63;6969523;28;20647;-86
2023/08/23 06:47:10;;;;;;;11.23;6.67;;;;;;;29.10;46.58;99020.00;6968720;28;20295;-85
2023/08/23 06:50:33;;;;;;;7.40;6.30;;;;;;;29.73;45.85;99030.69;6969416;28;20609;-86
2023/08/23 06:53:54;;;;;;;6.80;6.17;;;;;;;29.87;45.17;99009.94;6969280;28;20230;-86
2023/08/23 06:57:16;;;;;;;6.37;5.77;;;;;;;30.54;43.81;99015.84;6968617;28;20267;-86
2023/08/23 07:00:37;;;;;;;8.33;6.70;;;;;;;30.19;43.74;99009.47;6969396;28;20347;-86
2023/08/23 07:04:00;;;;;;;8.47;6.73;;;;;;;29.40;45.90;99010.78;6975361;28;20610;-86
2023/08/23 07:07:22;;;;;;;9.73;6.20;;;;;;;29.12;47.17;99019.66;6968687;28;20258;-85
2023/08/23 07:10:44;;;;;;;7.37;6.57;;;;;;;29.35;45.54;98996.22;6969089;28;20306;-86
2023/08/23 07:14:06;;;;;;;7.87;6.17;;;;;;;29.45;46.92;99012.59;6968833;28;20236;-86
2023/08/23 07:17:28;;;;;;;8.27;5.47;;;;;;;31.14;41.97;99014.53;6941047;28;20278;-85
2023/08/23 07:20:51;;;;;;;7.10;5.50;;;;;;;30.68;42.88;99013.72;6958055;28;20200;-85
2023/08/23 07:24:12;;;;;;;7.90;6.07;;;;;;;30.21;43.29;98948.78;6972526;28;20559;-84
2023/08/23 07:27:34;;;;;;;6.80;6.20;;;;;;;30.87;43.43;99026.13;6970770;28;20691;-83
2023/08/23 07:30:57;;;;;;;6.77;6.17;;;;;;;30.72;43.48;99023.06;7002284;28;20753;-88
2023/08/23 07:34:19;;;;;;;6.17;5.57;;;;;;;30.16;44.79;99031.56;7006515;28;20705;-84
2023/08/23 07:37:42;;;;;;;6.27;5.67;;;;;;;30.18;45.14;99026.50;6984327;28;20229;-85
2023/08/23 07:41:04;;;;;;;8.37;6.37;;;;;;;29.50;46.25;98993.84;6980259;28;20213;-85
2023/08/23 07:44:25;;;;;;;7.73;5.60;;;;;;;31.10;42.90;99013.59;6982186;28;20254;-86
2023/08/23 07:47:47;;;;;;;6.40;5.50;;;;;;;30.48;44.32;99019.97;6977551;28;20258;-83
2023/08/23 07:51:08;;;;;;;8.80;5.80;;;;;;;31.38;41.97;99027.94;6953175;28;20251;-84
2023/08/23 07:54:31;;;;;;;8.30;5.80;;;;;;;31.86;41.09;99026.38;6950171;28;20226;-86
2023/08/23 07:57:53;;;;;;;9.03;5.37;;;;;;;32.28;40.13;99028.03;6963859;28;20229;-85
2023/08/23 08:01:14;;;;;;;7.13;5.57;;;;;;;32.25;39.11;98941.38;6975744;28;20212;-85
2023/08/23 08:04:36;;;;;;;6.33;5.33;;;;;;;31.72;40.29;98917.03;6987664;28;20230;-85
2023/08/23 08:07:58;;;;;;;6.50;5.70;;;;;;;30.91;42.12;98934.38;6974912;28;20582;-83
2023/08/23 08:11:21;;;;;;;5.70;5.13;;;;;;;31.15;41.21;98901.16;6974369;28;20201;-86
2023/08/23 08:14:42;;;;;;;9.40;5.27;;;;;;;32.34;40.19;98992.34;6973655;28;20358;-86
2023/08/23 08:18:04;;;;;;;5.87;5.37;;;;;;;32.58;38.97;98970.94;6973160;28;20225;-86
2023/08/23 08:21:26;;;;;;;7.90;5.87;;;;;;;32.88;38.80;98996.75;6974050;28;20267;-86
2023/08/23 08:24:47;;;;;;;7.03;5.30;;;;;;;32.24;40.15;99029.88;6973534;28;20264;-86
2023/08/23 08:28:10;;;;;;;5.60;5.10;;;;;;;32.89;38.08;98965.66;6992572;28;20252;-86
2023/08/23 08:31:32;;;;;;;6.47;5.10;;;;;;;33.45;35.92;99025.50;7000745;28;20745;-86
2023/08/23 08:34:55;;;;;;;5.50;4.70;;;;;;;33.56;35.98;99013.50;7001423;28;20368;-85
2023/08/23 08:38:16;;;;;;;5.53;4.27;;;;;;;33.53;36.63;99013.38;6988668;28;20229;-86
2023/08/23 08:41:41;;;;;;;5.50;5.00;;;;;;;33.98;36.21;99016.84;6971943;28;20255;-86
2023/08/23 08:45:05;;;;;;;4.83;4.23;;;;;;;33.52;36.84;99017.34;6973096;28;20245;-86
2023/08/23 08:48:27;;;;;;;7.80;4.70;;;;;;;33.80;36.03;99027.50;6972609;28;20646;-86
2023/08/23 08:51:48;;;;;;;5.47;4.33;;;;;;;34.14;35.36;99012.94;6972811;28;20304;-86
2023/08/23 08:55:11;;;;;;;6.60;4.73;;;;;;;32.88;37.95;99024.66;7001024;28;20312;-88
2023/08/23 08:58:33;;;;;;;5.27;4.23;;;;;;;34.01;37.07;99025.34;7000675;28;20287;-83
2023/08/23 09:01:58;;;;;;;6.00;4.50;;;;;;;34.43;35.34;99028.66;7001699;28;20233;-86
2023/08/23 09:05:21;;;;;;;5.40;4.67;;;;;;;34.42;36.38;99024.22;6997303;28;20260;-85
2023/08/23 09:08:42;;;;;;;6.03;3.93;;;;;;;34.70;35.62;99025.84;6972970;28;20244;-84
2023/08/23 09:12:04;;;;;;;5.20;4.40;;;;;;;34.59;35.23;99033.13;6973833;28;20220;-84
2023/08/23 09:15:26;;;;;;;7.40;6.17;;;;;;;34.16;35.96;98956.63;6972902;28;20242;-83
2023/08/23 09:18:48;;;;;;;9.13;6.83;;;;;;;34.37;34.88;99036.47;6973896;28;20312;-84
2023/08/23 09:22:10;;;;;;;6.07;4.40;;;;;;;33.97;34.71;98946.06;6972019;28;20350;-84
2023/08/23 09:25:32;;;;;;;7.23;5.00;;;;;;;34.07;36.18;99037.13;6973074;28;20202;-84
2023/08/23 09:28:53;;;;;;;9.77;5.27;;;;;;;33.96;36.11;99031.19;6974544;28;20249;-84
2023/08/23 09:32:15;;;;;;;7.10;4.60;;;;;;;33.83;35.63;99012.78;6974650;28;20766;-85
2023/08/23 09:35:47;;;;;;;7.43;5.07;;;;;;;34.04;35.73;99024.66;6990918;28;20244;-83
2023/08/23 09:39:10;;;;;;;7.13;4.83;;;;;;;33.19;37.14;99031.38;7008240;28;20220;-86
2023/08/23 09:42:33;;;;;;;10.47;6.73;;;;;;;33.15;36.43;99032.44;7007557;28;20237;-87
2023/08/23 09:45:55;;;;;;;11.77;7.40;;;;;;;34.54;34.37;99022.19;6984080;28;20198;-85
2023/08/23 09:49:17;;;;;;;6.47;4.83;;;;;;;34.50;35.16;99003.66;6985410;28;20209;-82
2023/08/23 09:52:42;;;;;;;4.87;4.37;;;;;;;35.39;33.47;99006.53;6979171;28;20226;-84
2023/08/23 09:56:04;;;;;;;7.87;4.33;;;;;;;36.05;33.01;99010.16;6973346;28;20202;-80
2023/08/23 09:59:26;;;;;;;5.73;4.50;;;;;;;34.83;35.24;99013.44;6972364;28;20288;-81
2023/08/23 10:02:47;;;;;;;5.47;4.37;;;;;;;35.68;33.13;98965.94;6972620;28;20219;-84
2023/08/23 10:06:09;;;;;;;5.97;4.13;;;;;;;36.13;32.95;98992.25;6972260;28;20210;-84
2023/08/23 10:09:33;;;;;;;5.90;3.73;;;;;;;36.08;31.77;98992.56;6972941;28;20230;-83
2023/08/23 10:12:57;;;;;;;6.33;4.13;;;;;;;36.29;31.10;98984.63;6971409;28;20275;-83
2023/08/23 10:16:18;;;;;;;6.53;3.90;;;;;;;35.68;31.64;98982.78;6944984;28;20230;-83
2023/08/23 10:19:40;;;;;;;6.10;4.17;;;;;;;35.45;31.64;98985.44;6963348;28;20237;-83
2023/08/23 10:23:02;;;;;;;5.80;4.43;;;;;;;35.65;32.05;98933.00;6970519;28;20226;-83
2023/08/23 10:26:26;;;;;;;4.73;4.23;;;;;;;35.45;33.02;98996.69;6967946;28;20206;-83
2023/08/23 10:29:50;;;;;;;6.70;4.40;;;;;;;35.43;32.65;98993.41;6970618;28;20247;-84
2023/08/23 10:33:13;;;;;;;4.70;4.30;;;;;;;35.27;33.48;98997.41;6970375;28;20662;-82
2023/08/23 10:36:37;;;;;;;5.93;3.80;;;;;;;35.32;33.08;98983.09;6969247;28;20237;-81
2023/08/23 10:40:01;;;;;;;4.33;3.93;;;;;;;36.09;31.84;98985.78;6969671;28;20197;-85
2023/08/23 10:43:24;;;;;;;4.47;3.93;;;;;;;36.58;30.26;98927.81;6969735;28;20234;-84
2023/08/23 10:46:46;;;;;;;5.93;3.80;;;;;;;36.86;29.56;98908.69;6970138;28;20344;-87
2023/08/23 10:50:08;;;;;;;4.93;3.47;;;;;;;37.01;29.53;98966.78;6971350;28;20233;-91
2023/08/23 10:53:35;;;;;;;5.03;3.70;;;;;;;36.84;29.35;98966.47;6955940;28;20705;-90
2023/08/23 10:56:56;;;;;;;4.17;3.77;;;;;;;36.19;30.90;98948.69;6941779;28;20211;-88
2023/08/23 11:00:19;;;;;;;4.23;3.60;;;;;;;37.67;28.13;98986.03;6942209;28;20206;-87
2023/08/23 11:03:41;;;;;;;4.47;3.23;;;;;;;37.89;27.86;98980.34;6941227;28;20220;-86
2023/08/23 11:07:03;;;;;;;4.07;3.67;;;;;;;37.70;28.63;98971.19;6941503;28;20210;-89
2023/08/23 11:10:25;;;;;;;4.63;3.53;;;;;;;37.56;28.71;98983.03;6945472;28;20235;-86
2023/08/23 11:13:47;;;;;;;5.80;3.57;;;;;;;37.63;29.14;98976.72;6942107;28;20266;-85
2023/08/23 11:17:11;;;;;;;5.57;3.73;;;;;;;37.66;28.73;98971.16;6941256;28;20270;-84
2023/08/23 11:20:33;;;;;;;4.63;3.70;;;;;;;37.11;29.51;98966.19;6941840;28;20208;-84
2023/08/23 11:23:54;;;;;;;5.80;3.67;;;;;;;37.33;29.05;98971.00;6941797;28;20364;-84
2023/08/23 11:27:16;;;;;;;4.00;3.67;;;;;;;37.60;27.43;98975.47;6961686;28;20292;-84
2023/08/23 11:30:37;;;;;;;5.37;3.73;;;;;;;36.86;30.04;98964.09;6969064;28;20297;-85
2023/08/23 11:34:06;;;;;;;6.70;3.90;;;;;;;36.17;30.94;98924.97;6969146;28;20260;-85
2023/08/23 11:37:29;;;;;;;4.30;3.90;;;;;;;36.97;30.77;98937.00;6968847;28;20264;-86
2023/08/23 11:40:50;;;;;;;4.93;3.53;;;;;;;37.08;30.65;98952.06;6971066;28;20554;-85
2023/08/23 11:44:13;;;;;;;7.23;4.27;;;;;;;37.96;28.32;98957.91;6970886;28;20319;-86
2023/08/23 11:47:36;;;;;;;5.03;3.60;;;;;;;36.05;29.89;98954.00;6968642;28;20199;-84
2023/08/23 11:51:01;;;;;;;4.27;3.33;;;;;;;37.08;29.85;98952.06;6962278;28;20229;-85
2023/08/23 11:54:22;;;;;;;7.10;4.00;;;;;;;36.94;30.37;98948.97;6972816;28;20594;-85
2023/08/23 11:57:44;;;;;;;5.97;3.97;;;;;;;37.37;29.62;98948.56;6971118;28;20226;-87
2023/08/23 12:01:05;;;;;;;5.63;4.00;;;;;;;37.02;29.75;98923.41;6968983;28;20288;-85
2023/08/23 12:04:27;;;;;;;4.93;3.60;;;;;;;38.48;27.81;98949.38;6971936;28;20254;-85
2023/08/23 12:07:50;;;;;;;6.77;4.00;;;;;;;37.88;28.67;98941.28;6969572;28;20294;-86
2023/08/23 12:11:11;;;;;;;4.83;3.70;;;;;;;36.72;29.58;98939.34;6968794;28;20264;-84
2023/08/23 12:14:33;;;;;;;6.57;3.70;;;;;;;37.44;29.28;98943.81;6970960;28;20261;-84
2023/08/23 12:17:55;;;;;;;5.53;3.60;;;;;;;37.12;29.16;98952.94;6973542;28;20324;-85
2023/08/23 12:21:17;;;;;;;4.83;3.60;;;;;;;38.17;28.09;98932.88;6974284;28;20263;-85
2023/08/23 12:24:40;;;;;;;4.20;3.50;;;;;;;38.04;28.15;98945.59;6973841;28;20250;-85
2023/08/23 12:28:02;;;;;;;3.73;3.43;;;;;;;37.29;29.28;98941.16;6973864;28;20214;-83
2023/08/23 12:31:23;;;;;;;4.33;3.67;;;;;;;37.93;29.02;98938.97;6972976;28;20264;-84
2023/08/23 12:34:45;;;;;;;6.57;4.07;;;;;;;37.90;28.27;98933.28;6983944;28;20362;-85
2023/08/23 12:38:07;;;;;;;4.10;3.63;;;;;;;38.17;27.81;98921.59;7000724;28;20610;-84
2023/08/23 12:41:29;;;;;;;4.77;3.47;;;;;;;38.54;27.75;98891.47;6976957;28;20228;-84
2023/08/23 12:44:51;;;;;;;4.50;3.87;;;;;;;36.72;29.55;98928.09;6974077;28;20237;-84
2023/08/23 12:48:15;;;;;;;5.63;3.83;;;;;;;36.16;30.76;98940.16;6971644;28;20352;-83
2023/08/23 12:51:36;;;;;;;10.43;3.60;;;;;;;37.25;29.27;98926.25;6968841;28;20211;-84
2023/08/23 12:54:58;;;;;;;3.67;3.27;;;;;;;35.53;30.91;98925.53;6944390;28;20350;-84
2023/08/23 12:58:21;;;;;;;4.83;3.70;;;;;;;36.47;30.22;98925.97;6944763;28;20253;-84
2023/08/23 13:01:43;;;;;;;5.50;3.97;;;;;;;35.70;30.96;98922.34;6944587;28;20623;-84
2023/08/23 13:05:05;;;;;;;3.73;3.43;;;;;;;35.34;31.08;98917.06;6961654;28;20229;-84
2023/08/23 13:08:26;;;;;;;4.00;3.63;;;;;;;36.52;30.31;98923.69;6973065;28;20332;-84
2023/08/23 13:11:48;;;;;;;9.63;3.73;;;;;;;37.29;28.95;98927.09;6973447;28;20236;-84
2023/08/23 13:15:11;;;;;;;4.37;3.50;;;;;;;37.11;29.65;98921.22;6972332;28;20640;-83
2023/08/23 13:18:33;;;;;;;8.40;4.10;;;;;;;36.54;29.83;98912.88;6970881;28;20301;-84
2023/08/23 13:21:55;;;;;;;7.07;3.87;;;;;;;35.80;30.97;98921.78;6972026;28;20289;-84
2023/08/23 13:25:17;;;;;;;4.50;3.90;;;;;;;36.52;30.26;98909.66;6973334;28;20293;-84
2023/08/23 13:28:38;;;;;;;5.20;3.93;;;;;;;36.11;31.76;98916.03;6971610;28;20210;-83
2023/08/23 13:32:01;;;;;;;6.30;3.90;;;;;;;36.94;30.03;98918.03;6971895;28;20214;-83
2023/08/23 13:35:23;;;;;;;6.97;4.20;;;;;;;36.79;30.51;98904.94;6971301;28;20225;-84
2023/08/23 13:38:45;;;;;;;6.63;4.27;;;;;;;35.65;31.42;98885.28;6972233;28;20694;-85
2023/08/23 13:42:07;;;;;;;4.17;3.73;;;;;;;35.96;31.63;98902.06;6981381;28;20674;-85
2023/08/23 13:45:28;;;;;;;5.37;4.30;;;;;;;35.82;31.55;98921.38;7000371;28;20263;-85
2023/08/23 13:48:51;;;;;;;4.53;3.70;;;;;;;36.35;30.84;98915.72;6980771;28;20330;-85
2023/08/23 13:52:13;;;;;;;5.37;3.90;;;;;;;36.12;31.33;98900.78;6972190;28;20297;-83
2023/08/23 13:55:34;;;;;;;8.77;3.43;;;;;;;36.89;30.47;98895.91;6979259;28;20392;-86
2023/08/23 13:58:57;;;;;;;4.10;3.20;;;;;;;37.55;29.04;98904.66;7000339;28;20719;-85
2023/08/23 14:02:19;;;;;;;5.77;3.83;;;;;;;37.28;29.05;98906.63;6998080;28;20232;-84
2023/08/23 14:05:41;;;;;;;3.97;3.30;;;;;;;36.92;30.29;98904.38;6998206;28;20756;-87
2023/08/23 14:09:03;;;;;;;3.87;3.30;;;;;;;35.92;30.86;98907.59;6972093;28;20297;-84
2023/08/23 14:12:25;;;;;;;3.70;3.10;;;;;;;36.13;30.00;98888.38;6970630;28;20321;-85
2023/08/23 14:15:46;;;;;;;8.83;3.60;;;;;;;36.29;30.72;98888.31;6970313;28;20570;-85
2023/08/23 14:19:08;;;;;;;6.37;3.93;;;;;;;35.70;30.82;98891.47;6970901;28;20234;-83
2023/08/23 14:22:31;;;;;;;7.17;3.93;;;;;;;34.95;31.43;98883.63;6970449;28;20633;-83
2023/08/23 14:25:52;;;;;;;7.27;3.70;;;;;;;35.18;31.65;98904.19;6971402;28;20260;-85
2023/08/23 14:29:14;;;;;;;5.70;3.70;;;;;;;34.92;31.46;98831.91;6969732;28;20343;-84
2023/08/23 14:32:35;;;;;;;5.23;3.50;;;;;;;35.11;32.15;98890.00;6970470;28;20722;-84
2023/08/23 14:35:57;;;;;;;9.47;3.50;;;;;;;36.08;30.27;98891.47;6967546;28;20285;-84
2023/08/23 14:39:20;;;;;;;6.93;3.33;;;;;;;35.67;29.96;98855.69;6969476;28;20265;-84
2023/08/23 14:42:42;;;;;;;3.67;3.37;;;;;;;35.82;29.79;98887.72;6970888;28;20222;-86
2023/08/23 14:46:04;;;;;;;6.70;3.70;;;;;;;35.66;29.42;98882.13;6968909;28;20273;-84
2023/08/23 14:49:26;;;;;;;6.83;3.70;;;;;;;35.38;30.26;98889.09;6968876;28;20346;-85
2023/08/23 14:52:48;;;;;;;6.80;3.47;;;;;;;35.75;29.77;98894.00;6955528;28;20378;-84
2023/08/23 14:56:12;;;;;;;5.47;3.30;;;;;;;36.02;29.66;98909.00;6943920;28;20286;-85
2023/08/23 14:59:33;;;;;;;4.60;3.23;;;;;;;36.13;29.15;98896.00;6944902;28;20280;-84
2023/08/23 15:02:55;;;;;;;3.67;3.30;;;;;;;35.77;29.53;98888.00;6952242;28;20230;-84
2023/08/23 15:06:16;;;;;;;5.33;3.10;;;;;;;35.52;29.62;98890.25;6971627;28;20210;-85
2023/08/23 15:09:39;;;;;;;4.40;2.60;;;;;;;35.71;28.82;98875.44;6971472;28;20675;-85
2023/08/23 15:13:02;;;;;;;4.07;3.47;;;;;;;35.55;29.14;98886.69;6970846;28;20316;-84
2023/08/23 15:16:23;;;;;;;5.33;3.23;;;;;;;35.04;30.03;98887.03;6971504;28;20216;-83
2023/08/23 15:19:46;;;;;;;4.10;3.10;;;;;;;35.02;29.44;98892.22;6971724;28;20368;-84
2023/08/23 15:23:08;;;;;;;4.27;2.77;;;;;;;35.45;29.17;98878.03;6972258;28;20257;-84
2023/08/23 15:26:29;;;;;;;5.47;3.07;;;;;;;35.48;28.63;98875.31;6968332;28;20289;-84
2023/08/23 15:29:52;;;;;;;5.13;2.90;;;;;;;35.36;29.04;98878.25;6971779;28;20702;-84
2023/08/23 15:33:14;;;;;;;3.53;2.90;;;;;;;34.84;30.01;98883.34;6972451;28;20254;-84
2023/08/23 15:36:35;;;;;;;5.80;3.37;;;;;;;35.64;28.83;98889.28;6969885;28;20824;-84
2023/08/23 15:39:57;;;;;;;3.57;3.10;;;;;;;34.89;28.87;98882.28;6973026;28;20257;-84
2023/08/23 15:43:19;;;;;;;6.33;3.00;;;;;;;35.33;28.58;98881.78;6973145;28;20269;-84
2023/08/23 15:46:42;;;;;;;4.43;2.80;;;;;;;35.34;28.44;98883.41;6971640;28;20249;-84
2023/08/23 15:50:04;;;;;;;5.27;2.80;;;;;;;35.41;28.88;98891.16;6972425;28;20239;-84
2023/08/23 15:53:25;;;;;;;6.20;2.87;;;;;;;34.98;28.31;98857.66;6973823;28;20785;-84